Terminal Aerodrome Forecast
Issued by NWS

Home | Current Version | Previous Version | Text Only | Print | Product List | Glossary On
Versions: 1 2 3 4 5 6 7 8 9 10 11 12 13 14 15 16
000
FTUS43 KILX 250822 AAA
TAFBMI
TAF AMD
KBMI 250822Z 2508/2606 18020G25KT P6SM VCSH BKN015
      TEMPO 2508/2511 SCT015 BKN150
     FM251400 22020G28KT P6SM VCSH BKN020
     FM251800 22017G25KT P6SM SCT040
     FM260000 18014KT P6SM BKN250=

USA.gov is the U.S. government's official web portal to all federal, state and local government web resources and services.